createdAt,value
2018-03-07T00:05:30.254Z,93836.88
2018-03-07T00:08:00.712Z,93852.60
2018-03-07T00:10:37.328Z,93846.30
2018-03-07T00:13:06.816Z,93851.77
2018-03-07T00:15:38.611Z,93857.53
2018-03-07T00:18:14.340Z,93837.76
2018-03-07T00:20:50.830Z,93863.27
2018-03-07T00:23:30.026Z,93865.42
2018-03-07T00:26:06.475Z,93864.05
2018-03-07T00:28:44.101Z,93871.80
2018-03-07T00:31:22.109Z,93869.27
2018-03-07T00:33:52.398Z,93876.12
2018-03-07T00:36:20.187Z,93871.11
2018-03-07T00:38:47.920Z,93882.65
2018-03-07T00:41:17.019Z,93882.86
2018-03-07T00:43:44.683Z,93876.84
2018-03-07T00:46:12.440Z,93873.78
2018-03-07T00:48:40.325Z,93870.49
2018-03-07T00:51:08.724Z,93869.21
2018-03-07T00:53:37.597Z,93864.50
2018-03-07T00:56:05.262Z,93862.52
2018-03-07T00:58:32.856Z,93854.06
2018-03-07T01:01:00.473Z,93858.67
2018-03-07T01:03:28.672Z,93863.95
2018-03-07T01:05:56.281Z,93863.80
2018-03-07T01:08:23.907Z,93865.41
2018-03-07T01:10:51.632Z,93868.95
2018-03-07T01:13:20.334Z,93873.78
2018-03-07T01:15:48.392Z,93869.56
2018-03-07T01:18:16.358Z,93866.44
2018-03-07T01:20:43.989Z,93855.99
2018-03-07T01:23:12.929Z,93862.23
2018-03-07T01:25:41.499Z,93857.63
2018-03-07T01:28:09.172Z,93870.78
2018-03-07T01:30:36.831Z,93863.16
2018-03-07T01:33:05.297Z,93868.48
2018-03-07T01:35:33.966Z,93869.86
2018-03-07T01:38:01.648Z,93866.83
2018-03-07T01:40:29.299Z,93863.47
2018-03-07T01:42:56.914Z,93869.52
2018-03-07T01:45:24.655Z,93861.84
2018-03-07T01:47:52.371Z,93864.02
2018-03-07T01:50:19.992Z,93864.09
2018-03-07T01:52:47.827Z,93865.08
2018-03-07T01:55:15.433Z,93872.15
2018-03-07T01:57:43.058Z,93869.36
2018-03-07T02:00:11.009Z,93867.25
2018-03-07T02:02:38.634Z,93875.75
2018-03-07T02:05:06.511Z,93880.91
2018-03-07T02:07:34.547Z,93876.48
2018-03-07T02:10:02.169Z,93875.66
2018-03-07T02:12:29.761Z,93874.26
2018-03-07T02:14:57.367Z,93872.72
2018-03-07T02:17:25.597Z,93872.54
2018-03-07T02:19:53.175Z,93871.45
2018-03-07T02:22:20.801Z,93876.24
2018-03-07T02:24:48.626Z,93874.98
2018-03-07T02:27:16.268Z,93882.77
2018-03-07T02:29:43.887Z,93881.14
2018-03-07T02:32:12.650Z,93873.88
2018-03-07T02:34:40.254Z,93876.83
2018-03-07T02:37:08.141Z,93879.62
2018-03-07T02:39:35.823Z,93880.69
2018-03-07T02:42:03.430Z,93877.31
2018-03-07T02:44:30.988Z,93883.78
2018-03-07T02:46:58.580Z,93882.82
2018-03-07T02:49:26.512Z,93883.29
2018-03-07T02:51:54.317Z,93884.28
2018-03-07T02:54:21.910Z,93887.16
2018-03-07T02:56:49.534Z,93889.17
2018-03-07T02:59:17.818Z,93894.25
2018-03-07T03:01:45.414Z,93888.75
2018-03-07T03:04:13.032Z,93889.52
2018-03-07T03:06:41.830Z,93892.13
2018-03-07T03:09:10.742Z,93887.26
2018-03-07T03:11:38.364Z,93890.00
2018-03-07T03:14:05.960Z,93888.61
2018-03-07T03:16:33.575Z,93892.20
2018-03-07T03:19:04.579Z,93882.78
2018-03-07T03:21:32.156Z,93898.23
2018-03-07T03:23:59.751Z,93894.17
2018-03-07T03:26:27.380Z,93898.63
2018-03-07T03:28:54.954Z,93902.00
2018-03-07T03:31:22.534Z,93905.03
2018-03-07T03:33:50.212Z,93913.59
2018-03-07T03:36:18.432Z,93907.59
2018-03-07T03:38:46.027Z,93912.20
2018-03-07T03:41:18.189Z,93915.41
2018-03-07T03:43:47.266Z,93909.50
2018-03-07T03:46:16.170Z,93911.37
2018-03-07T03:48:47.838Z,93915.27
2018-03-07T03:51:18.108Z,93914.02
2018-03-07T03:53:48.926Z,93916.70
2018-03-07T03:56:19.680Z,93917.27
2018-03-07T03:58:47.593Z,93915.00
2018-03-07T04:01:15.226Z,93913.20
2018-03-07T04:03:42.832Z,93915.69
2018-03-07T04:06:10.473Z,93908.03
2018-03-07T04:08:38.074Z,93916.31
2018-03-07T04:11:06.334Z,93912.11
2018-03-07T04:13:34.265Z,93910.20
2018-03-07T04:16:01.887Z,93910.55
2018-03-07T04:18:29.505Z,93919.31
2018-03-07T04:20:57.165Z,93915.70
2018-03-07T04:23:24.753Z,93921.48
2018-03-07T04:25:52.444Z,93915.56
2018-03-07T04:28:20.722Z,93923.95
2018-03-07T04:30:48.569Z,93921.97
2018-03-07T04:33:16.578Z,93923.65
2018-03-07T04:35:44.223Z,93920.78
2018-03-07T04:38:11.899Z,93927.50
2018-03-07T04:40:39.626Z,93924.55
2018-03-07T04:43:07.440Z,93924.50
2018-03-07T04:45:35.719Z,93923.07
2018-03-07T04:48:03.793Z,93918.89
2018-03-07T04:50:31.374Z,93925.21
2018-03-07T04:52:59.599Z,93928.63
2018-03-07T04:55:27.268Z,93930.03
2018-03-07T04:57:54.919Z,93926.66
2018-03-07T05:00:22.550Z,93929.30
2018-03-07T05:02:50.216Z,93933.09
2018-03-07T05:05:17.882Z,93933.08
2018-03-07T05:07:45.505Z,93941.09
2018-03-07T05:10:13.172Z,93940.25
2018-03-07T05:12:40.782Z,93939.27
2018-03-07T05:15:08.510Z,93945.45
2018-03-07T05:17:37.040Z,93949.00
2018-03-07T05:20:04.702Z,93949.88
2018-03-07T05:22:32.676Z,93954.97
2018-03-07T05:25:00.344Z,93951.84
2018-03-07T05:27:28.729Z,93959.05
2018-03-07T05:29:56.427Z,93956.40
2018-03-07T05:32:24.974Z,93963.92
2018-03-07T05:34:52.607Z,93965.39
2018-03-07T05:37:20.292Z,93966.77
2018-03-07T05:39:47.938Z,93977.67
2018-03-07T05:42:15.802Z,93976.22
2018-03-07T05:44:43.484Z,93984.45
2018-03-07T05:47:11.591Z,93974.94
2018-03-07T05:49:39.457Z,93985.39
2018-03-07T05:52:07.104Z,93984.40
2018-03-07T05:54:34.860Z,93984.75
2018-03-07T05:57:02.557Z,93988.13
2018-03-07T05:59:30.218Z,93985.36
2018-03-07T06:01:57.835Z,93988.59
2018-03-07T06:04:26.646Z,93993.22
2018-03-07T06:06:54.524Z,93992.59
2018-03-07T06:09:23.766Z,93994.39
2018-03-07T06:11:51.432Z,94003.08
2018-03-07T06:14:19.064Z,93999.10
2018-03-07T06:16:46.660Z,93996.85
2018-03-07T06:19:14.712Z,94004.58
2018-03-07T06:21:42.355Z,94011.55
2018-03-07T06:24:10.281Z,94019.51
2018-03-07T06:26:37.925Z,94024.53
2018-03-07T06:29:06.042Z,94018.35
2018-03-07T06:31:33.648Z,94023.02
2018-03-07T06:34:01.304Z,94023.80
2018-03-07T06:36:28.941Z,94020.23
2018-03-07T06:38:56.593Z,94020.09
2018-03-07T06:41:24.895Z,94021.00
2018-03-07T06:43:52.547Z,94019.81
2018-03-07T06:46:20.212Z,94023.19
2018-03-07T06:48:47.818Z,94020.88
2018-03-07T06:51:16.060Z,94026.33
2018-03-07T06:53:43.697Z,94026.27
2018-03-07T06:56:11.639Z,94028.59
2018-03-07T06:58:39.661Z,94027.73
2018-03-07T07:01:07.287Z,94020.80
2018-03-07T07:03:34.882Z,94021.02
2018-03-07T07:06:02.515Z,94022.12
2018-03-07T07:08:30.239Z,94029.12
2018-03-07T07:10:57.894Z,94035.06
2018-03-07T07:13:25.638Z,94035.59
2018-03-07T07:15:57.249Z,94032.06
2018-03-07T07:18:24.898Z,94038.70
2018-03-07T07:20:52.517Z,94040.00
2018-03-07T07:23:20.833Z,94039.78
2018-03-07T07:25:48.534Z,94064.67
2018-03-07T07:28:16.203Z,94046.06
2018-03-07T07:30:43.809Z,94047.13
2018-03-07T07:33:12.638Z,94045.46
2018-03-07T07:35:41.118Z,94040.58
2018-03-07T07:38:10.574Z,94037.79
2018-03-07T07:40:38.205Z,94045.11
2018-03-07T07:43:06.007Z,94045.38
2018-03-07T07:45:33.646Z,94043.79
2018-03-07T07:48:01.281Z,94050.06
2018-03-07T07:50:28.878Z,94052.28
2018-03-07T07:52:56.525Z,94056.28
2018-03-07T07:55:24.864Z,94060.07
2018-03-07T07:57:52.396Z,94054.14
2018-03-07T08:00:20.192Z,94060.13
2018-03-07T08:02:47.839Z,94068.42
2018-03-07T08:05:15.675Z,94073.97
2018-03-07T08:07:43.283Z,94081.97
2018-03-07T08:10:10.935Z,94080.29
2018-03-07T08:12:38.671Z,94092.59
2018-03-07T08:15:06.409Z,94094.53
2018-03-07T08:17:34.041Z,94093.91
2018-03-07T08:20:01.638Z,94081.20
2018-03-07T08:22:32.309Z,94081.25
2018-03-07T08:24:59.922Z,94088.34
2018-03-07T08:27:28.385Z,94097.37
2018-03-07T08:29:55.976Z,94097.16
2018-03-07T08:32:25.132Z,94108.63
2018-03-07T08:34:52.889Z,94099.75
2018-03-07T08:37:20.522Z,94110.30
2018-03-07T08:39:48.120Z,94108.83
2018-03-07T08:42:15.735Z,94111.84
2018-03-07T08:44:43.334Z,94123.98
2018-03-07T08:47:11.898Z,94127.08
2018-03-07T08:49:39.503Z,94114.91
2018-03-07T08:52:07.150Z,94127.03
2018-03-07T08:54:34.781Z,94124.55
2018-03-07T08:57:02.373Z,94128.03
2018-03-07T08:59:29.994Z,94131.31
2018-03-07T09:01:57.581Z,94131.26
2018-03-07T09:04:25.170Z,94136.62
2018-03-07T09:06:52.800Z,94145.14
2018-03-07T09:09:24.163Z,94147.83
2018-03-07T09:11:52.344Z,94158.20
2018-03-07T09:14:20.114Z,94153.64
2018-03-07T09:16:48.824Z,94159.78
2018-03-07T09:19:17.086Z,94164.00
2018-03-07T09:21:44.819Z,94168.07
2018-03-07T09:24:12.504Z,94168.58
2018-03-07T09:26:40.106Z,94170.15
2018-03-07T09:29:10.346Z,94160.13
2018-03-07T09:31:38.028Z,94161.75
2018-03-07T09:34:05.778Z,94168.73
2018-03-07T09:36:33.417Z,94176.73
2018-03-07T09:39:01.000Z,94176.95
2018-03-07T09:41:29.890Z,94179.84
2018-03-07T09:43:57.836Z,94186.48
2018-03-07T09:46:25.690Z,94190.05
2018-03-07T09:48:53.318Z,94189.33
2018-03-07T09:51:21.903Z,94189.03
2018-03-07T09:53:49.514Z,94197.43
2018-03-07T09:56:17.181Z,94199.95
2018-03-07T09:58:44.758Z,94208.53
2018-03-07T10:01:12.403Z,94204.91
2018-03-07T10:03:40.020Z,94208.68
2018-03-07T10:06:07.616Z,94216.37
2018-03-07T10:08:35.235Z,94220.46
2018-03-07T10:11:02.876Z,94220.36
2018-03-07T10:13:33.135Z,94231.35
2018-03-07T10:16:00.748Z,94226.20
2018-03-07T10:18:29.907Z,94235.05
2018-03-07T10:20:57.507Z,94228.22
2018-03-07T10:23:26.865Z,94226.67
2018-03-07T10:25:54.533Z,94229.54
2018-03-07T10:28:24.188Z,94229.88
2018-03-07T10:30:52.110Z,94243.66
2018-03-07T10:33:26.149Z,94241.12
2018-03-07T10:35:53.720Z,94239.22
2018-03-07T10:38:21.291Z,94248.77
2018-03-07T10:40:48.810Z,94246.77
2018-03-07T10:43:16.365Z,94249.59
2018-03-07T10:45:43.936Z,94254.39
2018-03-07T10:48:11.515Z,94258.89
2018-03-07T10:50:39.151Z,94256.64
2018-03-07T10:53:07.126Z,94259.16
2018-03-07T10:55:34.730Z,94266.79
2018-03-07T10:58:02.384Z,94263.94
2018-03-07T11:00:35.564Z,94259.36
2018-03-07T11:03:03.203Z,94267.83
2018-03-07T11:05:31.162Z,94266.67
2018-03-07T11:08:00.252Z,94271.59
2018-03-07T11:10:27.959Z,94265.03
2018-03-07T11:12:55.703Z,94263.22
2018-03-07T11:15:23.489Z,94259.94
2018-03-07T11:17:51.201Z,94265.88
2018-03-07T11:20:19.321Z,94262.30
2018-03-07T11:22:47.423Z,94259.10
2018-03-07T11:25:17.078Z,94261.02
2018-03-07T11:27:45.486Z,94270.29
2018-03-07T11:30:15.549Z,94261.41
2018-03-07T11:32:46.998Z,94267.83
2018-03-07T11:35:15.239Z,94269.95
2018-03-07T11:37:43.751Z,94272.75
2018-03-07T11:40:11.993Z,94279.16
2018-03-07T11:42:39.632Z,94283.03
2018-03-07T11:45:07.332Z,94280.86
2018-03-07T11:47:34.910Z,94292.36
2018-03-07T11:50:02.526Z,94282.81
2018-03-07T11:52:31.188Z,94292.73
2018-03-07T11:55:01.354Z,94293.45
2018-03-07T11:57:30.536Z,94292.45
2018-03-07T12:00:02.710Z,94288.61
2018-03-07T12:02:30.492Z,94286.47
2018-03-07T12:04:58.120Z,94300.55
2018-03-07T12:07:25.732Z,94296.23
2018-03-07T12:09:53.419Z,94291.17
2018-03-07T12:12:21.012Z,94297.41
2018-03-07T12:14:48.811Z,94295.55
2018-03-07T12:17:16.445Z,94296.54
2018-03-07T12:19:44.080Z,94302.14
2018-03-07T12:22:11.714Z,94302.63
2018-03-07T12:24:39.581Z,94312.30
2018-03-07T12:27:08.499Z,94313.84
2018-03-07T12:29:36.180Z,94308.69
2018-03-07T12:32:03.823Z,94313.22
2018-03-07T12:34:31.472Z,94317.77
2018-03-07T12:36:59.102Z,94312.72
2018-03-07T12:39:28.385Z,94310.16
2018-03-07T12:41:56.355Z,94299.11
2018-03-07T12:44:30.886Z,94313.56
2018-03-07T12:47:00.124Z,94312.97
2018-03-07T12:49:28.633Z,94311.98
2018-03-07T12:51:56.439Z,94321.11
2018-03-07T12:54:24.837Z,94314.77
2018-03-07T12:56:52.465Z,94319.27
2018-03-07T12:59:20.129Z,94318.91
2018-03-07T13:01:47.692Z,94313.80
2018-03-07T13:04:15.411Z,94313.67
2018-03-07T13:06:43.090Z,94315.30
2018-03-07T13:09:15.252Z,94313.36
2018-03-07T13:11:42.902Z,94316.00
2018-03-07T13:14:12.618Z,94309.45
2018-03-07T13:16:40.475Z,94317.83
2018-03-07T13:19:09.274Z,94314.84
2018-03-07T13:21:36.932Z,94321.76
2018-03-07T13:24:04.639Z,94319.09
2018-03-07T13:26:33.746Z,94326.45
2018-03-07T13:29:02.283Z,94334.43
2018-03-07T13:31:32.949Z,94341.46
2018-03-07T13:34:04.951Z,94349.01
2018-03-07T13:36:33.062Z,94350.87
2018-03-07T13:39:01.587Z,94351.76
2018-03-07T13:41:29.309Z,94351.73
2018-03-07T13:44:05.705Z,94355.74
2018-03-07T13:46:39.730Z,94352.96
2018-03-07T13:49:28.574Z,94353.55
2018-03-07T13:51:56.338Z,94352.39
2018-03-07T13:54:25.484Z,94361.96
2018-03-07T13:56:54.551Z,94355.19
2018-03-07T13:59:26.648Z,94358.46
2018-03-07T14:01:55.428Z,94358.39
2018-03-07T14:04:23.467Z,94345.48
2018-03-07T14:06:53.838Z,94361.05
2018-03-07T14:09:24.597Z,94362.20
2018-03-07T14:14:40.985Z,94352.59
2018-03-07T14:17:14.730Z,94352.48
2018-03-07T14:19:42.466Z,94358.17
2018-03-07T14:22:10.685Z,94354.31
2018-03-07T14:24:51.057Z,94355.20
2018-03-07T14:27:26.523Z,94359.05
2018-03-07T14:29:54.236Z,94364.56
2018-03-07T14:32:24.638Z,94360.91
2018-03-07T14:34:55.557Z,94365.16
2018-03-07T14:37:38.073Z,94359.49
2018-03-07T14:40:05.886Z,94359.93
2018-03-07T14:42:33.503Z,94359.49
2018-03-07T14:45:01.249Z,94358.21
2018-03-07T14:47:30.341Z,94356.18
2018-03-07T14:49:59.232Z,94351.67
2018-03-07T14:52:27.115Z,94348.56
2018-03-07T14:54:54.846Z,94349.29
2018-03-07T14:57:27.005Z,94347.43
2018-03-07T14:59:54.646Z,94352.38
2018-03-07T15:02:23.987Z,94349.07
2018-03-07T15:04:53.401Z,94352.55
2018-03-07T15:07:22.412Z,94354.11
2018-03-07T15:09:59.390Z,94348.30
2018-03-07T15:12:27.838Z,94350.69
2018-03-07T15:14:55.488Z,94361.66
2018-03-07T15:17:24.144Z,94365.39
2018-03-07T15:20:08.206Z,94366.70
2018-03-07T15:22:42.267Z,94368.23
2018-03-07T15:25:16.511Z,94363.63
2018-03-07T15:27:50.181Z,94370.49
2018-03-07T15:30:17.797Z,94372.24
2018-03-07T15:32:46.547Z,94369.59
2018-03-07T15:35:15.813Z,94370.45
2018-03-07T15:37:48.311Z,94373.39
2018-03-07T15:40:19.246Z,94381.05
2018-03-07T15:43:01.763Z,94384.59
2018-03-07T15:45:35.041Z,94383.75
2018-03-07T15:48:06.535Z,94383.27
2018-03-07T15:50:35.222Z,94383.44
2018-03-07T15:53:04.102Z,94399.33
2018-03-07T15:55:32.665Z,94388.70
2018-03-07T15:58:00.854Z,94396.95
2018-03-07T16:00:28.543Z,94391.23
2018-03-07T16:02:56.304Z,94403.29
2018-03-07T16:05:26.168Z,94394.97
2018-03-07T16:07:55.123Z,94408.31
2018-03-07T16:10:23.102Z,94414.77
2018-03-07T16:12:50.896Z,94417.00
2018-03-07T16:15:18.797Z,94424.72
2018-03-07T16:17:46.502Z,94428.91
2018-03-07T16:20:16.999Z,94434.16
2018-03-07T16:22:46.696Z,94431.00
2018-03-07T16:25:16.194Z,94434.04
2018-03-07T16:27:44.219Z,94437.53
2018-03-07T16:30:13.024Z,94435.51
2018-03-07T16:32:41.586Z,94436.75
2018-03-07T16:35:13.072Z,94443.90
2018-03-07T16:37:41.869Z,94428.67
2018-03-07T16:40:09.508Z,94436.37
2018-03-07T16:42:38.323Z,94446.38
2018-03-07T16:45:12.435Z,94445.92
2018-03-07T16:47:43.928Z,94441.94
2018-03-07T16:50:19.209Z,94455.06
2018-03-07T16:52:56.016Z,94458.00
2018-03-07T16:58:15.671Z,94462.27
2018-03-07T17:00:50.767Z,94468.52
2018-03-07T17:09:18.910Z,94477.70
2018-03-07T17:11:58.817Z,94478.68
2018-03-07T17:14:41.411Z,94484.61
2018-03-07T17:19:58.277Z,94481.27
2018-03-07T17:22:29.035Z,94481.44
2018-03-07T17:25:03.703Z,94479.45
2018-03-07T17:27:42.431Z,94486.19
2018-03-07T17:30:18.969Z,94486.92
2018-03-07T17:32:52.102Z,94509.06
2018-03-07T17:38:19.239Z,94486.62
2018-03-07T17:40:55.398Z,94490.87
2018-03-07T17:43:34.993Z,94493.33
2018-03-07T17:46:11.074Z,94496.52
2018-03-07T17:51:56.034Z,94503.92
2018-03-07T18:00:03.349Z,94512.98
2018-03-07T18:05:49.265Z,94517.77
2018-03-07T18:14:13.850Z,94526.63
2018-03-07T18:25:26.162Z,94545.86
2018-03-07T18:46:37.878Z,94573.81
2018-03-07T18:51:46.802Z,94585.73
2018-03-07T18:56:58.715Z,94581.87
2018-03-07T18:59:38.669Z,94589.47
2018-03-07T19:02:08.480Z,94590.78
2018-03-07T19:04:38.785Z,94597.58
2018-03-07T19:07:09.992Z,94598.17
2018-03-07T19:15:51.792Z,94613.63
2018-03-07T19:21:57.095Z,94619.36
2018-03-07T19:30:16.783Z,94632.94
2018-03-07T19:32:59.775Z,94636.25
2018-03-07T19:55:58.886Z,94666.75
2018-03-07T19:58:45.613Z,94668.31
2018-03-07T20:16:01.562Z,94690.36
2018-03-07T20:39:31.546Z,94742.51
2018-03-07T20:42:03.721Z,94745.23
2018-03-07T20:44:31.363Z,94749.63
2018-03-07T20:46:59.176Z,94755.61
2018-03-07T20:49:26.979Z,94760.00
2018-03-07T20:51:54.911Z,94763.58
2018-03-07T20:54:25.168Z,94764.87
2018-03-07T20:56:52.713Z,94771.20
2018-03-07T20:59:20.377Z,94776.34
2018-03-07T21:01:48.011Z,94774.33
2018-03-07T21:04:15.632Z,94770.33
2018-03-07T21:06:43.209Z,94776.70
2018-03-07T21:09:11.291Z,94785.67
2018-03-07T21:11:38.904Z,94786.16
2018-03-07T21:14:06.578Z,94783.30
2018-03-07T21:16:34.702Z,94785.16
2018-03-07T21:19:02.300Z,94780.68
2018-03-07T21:21:30.541Z,94781.13
2018-03-07T21:23:59.013Z,94782.34
2018-03-07T21:26:28.771Z,94776.72
2018-03-07T21:28:56.772Z,94783.50
2018-03-07T21:31:24.346Z,94785.03
2018-03-07T21:33:51.978Z,94793.14
2018-03-07T21:36:19.781Z,94792.20
2018-03-07T21:38:47.513Z,94797.05
2018-03-07T21:41:15.116Z,94797.47
2018-03-07T21:43:42.896Z,94803.71
2018-03-07T21:46:10.663Z,94805.93
2018-03-07T21:48:38.236Z,94805.66
2018-03-07T21:51:06.198Z,94804.32
2018-03-07T21:53:33.924Z,94812.31
2018-03-07T21:56:01.522Z,94814.28
2018-03-07T21:58:29.391Z,94815.12
2018-03-07T22:00:57.022Z,94823.88
2018-03-07T22:03:24.615Z,94827.45
2018-03-07T22:05:52.460Z,94826.02
2018-03-07T22:08:20.106Z,94823.45
2018-03-07T22:10:47.667Z,94825.20
2018-03-07T22:13:15.306Z,94825.44
2018-03-07T22:15:42.935Z,94828.23
2018-03-07T22:18:10.580Z,94831.64
2018-03-07T22:20:38.142Z,94836.59
2018-03-07T22:23:05.865Z,94838.45
2018-03-07T22:25:33.477Z,94836.17
2018-03-07T22:28:01.103Z,94834.56
2018-03-07T22:30:28.715Z,94837.84
2018-03-07T22:32:56.474Z,94839.64
2018-03-07T22:35:24.077Z,94847.31
2018-03-07T22:37:51.689Z,94845.61
2018-03-07T22:40:19.260Z,94844.45
2018-03-07T22:42:46.806Z,94849.22
2018-03-07T22:45:14.423Z,94851.26
2018-03-07T22:47:42.013Z,94854.39
2018-03-07T22:50:09.635Z,94854.76
2018-03-07T22:52:37.351Z,94858.99
2018-03-07T22:55:05.143Z,94856.50
2018-03-07T22:57:32.909Z,94862.46
2018-03-07T23:00:00.621Z,94864.02
2018-03-07T23:02:29.022Z,94861.89
2018-03-07T23:05:03.434Z,94871.80
2018-03-07T23:07:31.970Z,94872.66
2018-03-07T23:10:00.652Z,94870.86
2018-03-07T23:12:28.520Z,94868.41
2018-03-07T23:14:56.465Z,94864.83
2018-03-07T23:17:26.309Z,94874.23
2018-03-07T23:19:54.163Z,94876.83
2018-03-07T23:22:21.833Z,94879.61
2018-03-07T23:24:49.623Z,94885.22
2018-03-07T23:27:20.159Z,94885.47
2018-03-07T23:29:47.811Z,94889.24
2018-03-07T23:32:19.721Z,94893.67
2018-03-07T23:34:48.150Z,94898.53
2018-03-07T23:37:16.115Z,94901.73
2018-03-07T23:39:43.816Z,94897.38
2018-03-07T23:42:11.664Z,94902.17
2018-03-07T23:44:42.800Z,94899.91
2018-03-07T23:47:11.276Z,94903.90
2018-03-07T23:49:40.366Z,94902.08
2018-03-07T23:52:10.750Z,94913.00
2018-03-07T23:54:39.202Z,94910.52
2018-03-07T23:57:07.217Z,94911.08
2018-03-07T23:59:34.842Z,94913.50
